Terminal Aerodrome Forecast
Issued by NWS

Home | Current Version | Previous Version | Text Only | Print | Product List | Glossary On
Versions: 1 2 3 4 5 6 7 8 9 10 11 12 13 14 15 16
000
FTUS45 KABQ 232300
TAFLVS
TAF
KLVS 232324Z 2400/2424 25027G35KT P6SM SCT110
     FM240200 29017G27KT P6SM SCT100
     FM241100 33015KT P6SM SKC
     FM241700 21015G22KT P6SM SKC
     FM242100 24021G29KT P6SM SKC=

USA.gov is the U.S. government's official web portal to all federal, state and local government web resources and services.